createdAt,value
2018-09-01T00:00:37.462Z,13.20
2018-09-01T00:03:06.052Z,13.10
2018-09-01T00:05:34.812Z,13.00
2018-09-01T00:08:03.479Z,13.00
2018-09-01T00:10:32.053Z,12.90
2018-09-01T00:13:00.825Z,12.90
2018-09-01T00:15:29.440Z,12.80
2018-09-01T00:17:57.988Z,12.80
2018-09-01T00:20:26.920Z,12.80
2018-09-01T00:22:55.320Z,12.80
2018-09-01T00:25:23.664Z,12.70
2018-09-01T00:27:52.077Z,12.70
2018-09-01T00:30:20.420Z,12.70
2018-09-01T00:32:48.804Z,12.60
2018-09-01T00:35:17.237Z,12.60
2018-09-01T00:37:50.953Z,12.60
2018-09-01T00:40:19.397Z,12.50
2018-09-01T00:42:47.793Z,12.50
2018-09-01T00:45:16.245Z,12.50
2018-09-01T00:47:44.596Z,12.50
2018-09-01T00:50:12.987Z,12.40
2018-09-01T00:52:41.503Z,12.40
2018-09-01T00:55:16.244Z,12.30
2018-09-01T00:57:44.611Z,12.30
2018-09-01T01:00:13.028Z,12.30
2018-09-01T01:02:41.616Z,12.20
2018-09-01T01:05:10.874Z,12.20
2018-09-01T01:07:39.357Z,12.20
2018-09-01T01:10:07.908Z,12.20
2018-09-01T01:12:36.344Z,12.10
2018-09-01T01:15:04.869Z,12.10
2018-09-01T01:17:33.223Z,12.10
2018-09-01T01:20:01.632Z,12.00
2018-09-01T01:22:29.975Z,12.00
2018-09-01T01:24:58.380Z,12.00
2018-09-01T01:27:26.757Z,12.00
2018-09-01T01:29:55.142Z,11.90
2018-09-01T01:32:23.670Z,11.90
2018-09-01T01:34:52.056Z,11.90
2018-09-01T01:37:20.420Z,11.90
2018-09-01T01:39:48.813Z,11.90
2018-09-01T01:42:17.997Z,11.90
2018-09-01T01:44:46.405Z,11.80
2018-09-01T01:47:15.699Z,11.80
2018-09-01T01:49:44.185Z,11.80
2018-09-01T01:52:12.810Z,11.80
2018-09-01T01:54:41.285Z,11.80
2018-09-01T01:57:09.651Z,11.80
2018-09-01T01:59:38.051Z,11.70
2018-09-01T02:02:06.430Z,11.70
2018-09-01T02:04:34.852Z,11.70
2018-09-01T02:07:03.223Z,11.70
2018-09-01T02:09:31.623Z,11.70
2018-09-01T02:11:59.984Z,11.70
2018-09-01T02:14:28.388Z,11.70
2018-09-01T02:16:56.789Z,11.60
2018-09-01T02:19:25.183Z,11.60
2018-09-01T02:21:53.584Z,11.50
2018-09-01T02:24:21.957Z,11.50
2018-09-01T02:26:50.340Z,11.50
2018-09-01T02:29:18.735Z,11.40
2018-09-01T02:31:47.102Z,11.30
2018-09-01T02:34:15.458Z,11.30
2018-09-01T02:36:43.881Z,11.30
2018-09-01T02:39:12.258Z,11.30
2018-09-01T02:41:40.654Z,11.20
2018-09-01T02:44:09.018Z,11.20
2018-09-01T02:46:37.419Z,11.20
2018-09-01T02:49:05.796Z,11.10
2018-09-01T02:51:34.244Z,11.10
2018-09-01T02:54:02.597Z,11.10
2018-09-01T02:56:31.119Z,11.10
2018-09-01T02:58:59.492Z,11.10
2018-09-01T03:01:33.333Z,11.10
2018-09-01T03:04:01.709Z,11.10
2018-09-01T03:06:40.102Z,11.10
2018-09-01T03:09:08.532Z,11.10
2018-09-01T03:11:36.949Z,11.00
2018-09-01T03:14:05.316Z,11.00
2018-09-01T03:16:33.880Z,11.00
2018-09-01T03:19:02.232Z,10.90
2018-09-01T03:21:30.620Z,10.90
2018-09-01T03:23:58.977Z,10.90
2018-09-01T03:26:27.413Z,10.80
2018-09-01T03:28:55.756Z,10.80
2018-09-01T03:31:24.181Z,10.80
2018-09-01T03:33:52.575Z,10.70
2018-09-01T03:36:20.996Z,10.70
2018-09-01T03:38:49.389Z,10.70
2018-09-01T03:41:17.769Z,10.70
2018-09-01T03:43:46.163Z,10.60
2018-09-01T03:46:14.532Z,10.60
2018-09-01T03:48:42.925Z,10.60
2018-09-01T03:51:11.310Z,10.60
2018-09-01T03:53:39.659Z,10.50
2018-09-01T03:56:08.069Z,10.50
2018-09-01T03:58:36.458Z,10.50
2018-09-01T04:01:04.841Z,10.50
2018-09-01T04:03:33.234Z,10.50
2018-09-01T04:06:01.636Z,10.40
2018-09-01T04:08:30.187Z,10.40
2018-09-01T04:10:58.586Z,10.40
2018-09-01T04:13:27.002Z,10.40
2018-09-01T04:15:55.400Z,10.40
2018-09-01T04:18:23.772Z,10.40
2018-09-01T04:20:52.161Z,10.40
2018-09-01T04:23:20.572Z,10.40
2018-09-01T04:25:48.984Z,10.40
2018-09-01T04:28:17.343Z,10.40
2018-09-01T04:30:45.752Z,10.30
2018-09-01T04:33:14.169Z,10.30
2018-09-01T04:35:42.585Z,10.30
2018-09-01T04:38:10.944Z,10.30
2018-09-01T04:40:39.349Z,10.30
2018-09-01T04:43:08.600Z,10.30
2018-09-01T04:45:36.977Z,10.30
2018-09-01T04:48:05.381Z,10.30
2018-09-01T04:50:33.744Z,10.30
2018-09-01T04:53:02.142Z,10.30
2018-09-01T04:55:30.509Z,10.20
2018-09-01T04:57:58.909Z,10.20
2018-09-01T05:00:27.292Z,10.20
2018-09-01T05:02:55.692Z,10.20
2018-09-01T05:05:24.060Z,10.30
2018-09-01T05:07:52.452Z,10.30
2018-09-01T05:10:20.969Z,10.30
2018-09-01T05:12:50.040Z,10.30
2018-09-01T05:15:18.521Z,10.30
2018-09-01T05:17:46.977Z,10.30
2018-09-01T05:20:15.348Z,10.30
2018-09-01T05:22:43.740Z,10.30
2018-09-01T05:25:12.157Z,10.40
2018-09-01T05:27:40.588Z,10.50
2018-09-01T05:30:09.397Z,10.60
2018-09-01T05:32:38.061Z,10.70
2018-09-01T05:35:06.540Z,10.80
2018-09-01T05:37:34.932Z,10.80
2018-09-01T05:40:03.336Z,10.90
2018-09-01T05:42:31.735Z,11.00
2018-09-01T05:45:00.097Z,11.10
2018-09-01T05:47:28.502Z,11.20
2018-09-01T05:49:56.865Z,11.30
2018-09-01T05:52:25.270Z,11.30
2018-09-01T05:54:53.673Z,11.40
2018-09-01T05:57:22.079Z,11.40
2018-09-01T05:59:50.441Z,11.40
2018-09-01T06:02:18.864Z,11.40
2018-09-01T06:04:47.224Z,11.50
2018-09-01T06:07:15.801Z,11.70
2018-09-01T06:09:44.180Z,11.90
2018-09-01T06:12:12.568Z,12.00
2018-09-01T06:14:40.933Z,12.00
2018-09-01T06:17:09.344Z,12.10
2018-09-01T06:19:37.755Z,12.10
2018-09-01T06:22:06.180Z,12.00
2018-09-01T06:24:34.549Z,12.00
2018-09-01T06:27:07.108Z,12.00
2018-09-01T06:29:35.509Z,12.00
2018-09-01T06:32:05.876Z,12.00
2018-09-01T06:34:34.273Z,12.10
2018-09-01T06:37:02.655Z,12.10
2018-09-01T06:39:31.211Z,12.10
2018-09-01T06:41:59.598Z,12.20
2018-09-01T06:44:28.053Z,12.20
2018-09-01T06:46:56.396Z,12.30
2018-09-01T06:49:24.807Z,12.40
2018-09-01T06:51:53.292Z,12.50
2018-09-01T06:54:21.668Z,12.50
2018-09-01T06:56:50.017Z,12.60
2018-09-01T06:59:18.416Z,12.70
2018-09-01T07:01:46.800Z,12.70
2018-09-01T07:04:15.176Z,12.80
2018-09-01T07:06:43.528Z,12.90
2018-09-01T07:09:11.902Z,13.00
2018-09-01T07:11:40.247Z,13.10
2018-09-01T07:14:08.631Z,13.20
2018-09-01T07:16:37.012Z,13.20
2018-09-01T07:19:05.550Z,13.30
2018-09-01T07:21:33.951Z,13.30
2018-09-01T07:24:02.341Z,13.40
2018-09-01T07:26:30.740Z,13.50
2018-09-01T07:28:59.134Z,13.60
2018-09-01T07:31:27.860Z,13.60
2018-09-01T07:33:55.924Z,13.70
2018-09-01T07:36:24.295Z,13.80
2018-09-01T07:38:52.692Z,13.80
2018-09-01T07:41:21.076Z,13.90
2018-09-01T07:43:49.524Z,14.00
2018-09-01T07:46:17.908Z,14.10
2018-09-01T07:48:46.315Z,14.20
2018-09-01T07:51:14.685Z,14.30
2018-09-01T07:53:43.083Z,14.40
2018-09-01T07:56:11.544Z,14.50
2018-09-01T07:58:39.881Z,14.60
2018-09-01T08:01:08.256Z,14.80
2018-09-01T08:03:36.616Z,14.90
2018-09-01T08:06:05.041Z,15.00
2018-09-01T08:08:33.418Z,15.10
2018-09-01T08:11:01.804Z,15.30
2018-09-01T08:13:30.194Z,15.40
2018-09-01T08:15:58.587Z,15.50
2018-09-01T08:18:26.963Z,15.50
2018-09-01T08:20:55.362Z,15.60
2018-09-01T08:23:23.746Z,15.70
2018-09-01T08:25:52.202Z,15.80
2018-09-01T08:28:20.584Z,15.90
2018-09-01T08:30:48.977Z,16.00
2018-09-01T08:33:17.342Z,16.10
2018-09-01T08:35:45.738Z,16.20
2018-09-01T08:38:14.120Z,16.30
2018-09-01T08:40:42.520Z,16.40
2018-09-01T08:43:11.136Z,16.50
2018-09-01T08:45:39.521Z,16.60
2018-09-01T08:48:07.881Z,16.70
2018-09-01T08:50:36.260Z,16.70
2018-09-01T08:53:04.656Z,16.80
2018-09-01T08:55:33.040Z,16.90
2018-09-01T08:58:01.397Z,17.00
2018-09-01T09:00:29.792Z,17.10
2018-09-01T09:02:58.182Z,17.10
2018-09-01T09:05:26.561Z,17.20
2018-09-01T09:07:54.932Z,17.30
2018-09-01T09:10:23.330Z,17.50
2018-09-01T09:12:51.685Z,17.60
2018-09-01T09:15:20.093Z,17.70
2018-09-01T09:17:48.449Z,17.80
2018-09-01T09:20:16.840Z,17.80
2018-09-01T09:22:45.218Z,17.90
2018-09-01T09:25:13.601Z,18.00
2018-09-01T09:27:41.984Z,18.00
2018-09-01T09:30:10.374Z,18.10
2018-09-01T09:32:38.750Z,18.10
2018-09-01T09:35:07.148Z,18.10
2018-09-01T09:37:35.505Z,18.20
2018-09-01T09:40:03.916Z,18.30
2018-09-01T09:42:32.297Z,18.30
2018-09-01T09:45:00.736Z,18.30
2018-09-01T09:47:29.129Z,18.30
2018-09-01T09:49:57.496Z,18.30
2018-09-01T09:52:25.892Z,18.30
2018-09-01T09:54:54.245Z,18.40
2018-09-01T09:57:22.616Z,18.40
2018-09-01T09:59:50.968Z,18.70
2018-09-01T10:02:19.364Z,19.00
2018-09-01T10:04:47.712Z,19.20
2018-09-01T10:07:16.088Z,19.40
2018-09-01T10:09:44.431Z,19.70
2018-09-01T10:12:12.809Z,19.70
2018-09-01T10:14:41.157Z,19.60
2018-09-01T10:17:09.528Z,19.40
2018-09-01T10:19:37.884Z,19.40
2018-09-01T10:22:06.263Z,19.50
2018-09-01T10:24:34.816Z,19.60
2018-09-01T10:27:03.315Z,19.80
2018-09-01T10:29:31.608Z,20.00
2018-09-01T10:31:59.981Z,20.10
2018-09-01T10:34:28.331Z,20.20
2018-09-01T10:36:56.720Z,20.20
2018-09-01T10:39:25.064Z,20.40
2018-09-01T10:41:53.440Z,20.40
2018-09-01T10:44:21.817Z,20.50
2018-09-01T10:46:50.280Z,20.60
2018-09-01T10:49:18.665Z,20.80
2018-09-01T10:51:47.044Z,21.00
2018-09-01T10:54:15.400Z,21.20
2018-09-01T10:56:43.772Z,21.30
2018-09-01T10:59:12.227Z,21.40
2018-09-01T11:01:40.533Z,21.40
2018-09-01T11:04:08.884Z,21.60
2018-09-01T11:06:37.261Z,21.70
2018-09-01T11:09:08.325Z,21.90
2018-09-01T11:11:36.801Z,21.90
2018-09-01T11:14:05.176Z,21.80
2018-09-01T11:16:33.566Z,21.60
2018-09-01T11:19:01.919Z,21.60
2018-09-01T11:21:30.313Z,21.60
2018-09-01T11:23:58.667Z,21.60
2018-09-01T11:26:27.086Z,21.90
2018-09-01T11:28:55.485Z,22.20
2018-09-01T11:31:23.852Z,22.30
2018-09-01T11:33:52.264Z,22.50
2018-09-01T11:36:20.638Z,22.70
2018-09-01T11:38:49.016Z,22.90
2018-09-01T11:41:17.381Z,22.90
2018-09-01T11:43:45.761Z,23.00
2018-09-01T11:46:14.108Z,23.00
2018-09-01T11:48:42.827Z,23.20
2018-09-01T11:51:11.164Z,23.10
2018-09-01T11:53:39.614Z,23.20
2018-09-01T11:56:07.945Z,23.30
2018-09-01T11:58:36.357Z,23.50
2018-09-01T12:01:04.765Z,23.70
2018-09-01T12:03:33.470Z,23.80
2018-09-01T12:06:01.926Z,23.80
2018-09-01T12:08:30.316Z,23.70
2018-09-01T12:10:58.857Z,23.90
2018-09-01T12:13:27.245Z,23.70
2018-09-01T12:15:55.766Z,23.40
2018-09-01T12:18:24.055Z,23.20
2018-09-01T12:20:52.508Z,23.10
2018-09-01T12:23:23.103Z,22.90
2018-09-01T12:25:51.524Z,22.70
2018-09-01T12:28:19.956Z,22.50
2018-09-01T12:30:48.288Z,22.40
2018-09-01T12:33:17.833Z,22.30
2018-09-01T12:35:46.193Z,22.30
2018-09-01T12:38:14.583Z,22.50
2018-09-01T12:40:42.945Z,22.80
2018-09-01T12:43:11.334Z,23.20
2018-09-01T12:45:39.700Z,23.50
2018-09-01T12:48:08.082Z,23.40
2018-09-01T12:50:36.450Z,23.30
2018-09-01T12:53:04.872Z,23.20
2018-09-01T12:55:33.263Z,23.10
2018-09-01T12:58:05.066Z,23.20
2018-09-01T13:00:35.879Z,23.30
2018-09-01T13:03:04.734Z,23.60
2018-09-01T13:05:33.407Z,24.10
2018-09-01T13:08:01.980Z,24.40
2018-09-01T13:10:30.337Z,24.80
2018-09-01T13:12:58.738Z,25.20
2018-09-01T13:15:27.108Z,25.50
2018-09-01T13:17:55.497Z,25.80
2018-09-01T13:20:23.881Z,25.80
2018-09-01T13:22:52.235Z,25.40
2018-09-01T13:25:20.718Z,25.00
2018-09-01T13:27:49.043Z,24.60
2018-09-01T13:30:17.483Z,24.30
2018-09-01T13:32:45.847Z,24.10
2018-09-01T13:35:14.229Z,23.90
2018-09-01T13:37:42.728Z,23.80
2018-09-01T13:40:11.340Z,23.60
2018-09-01T13:42:39.668Z,23.40
2018-09-01T13:45:08.096Z,23.20
2018-09-01T13:47:36.636Z,23.20
2018-09-01T13:50:05.064Z,23.10
2018-09-01T13:52:33.414Z,23.00
2018-09-01T13:55:02.381Z,23.20
2018-09-01T13:57:30.865Z,23.30
2018-09-01T14:00:01.188Z,23.50
2018-09-01T14:02:29.837Z,23.90
2018-09-01T14:04:58.201Z,24.30
2018-09-01T14:07:26.567Z,24.60
2018-09-01T14:09:54.928Z,24.90
2018-09-01T14:12:23.293Z,25.20
2018-09-01T14:14:51.860Z,25.40
2018-09-01T14:17:20.069Z,25.70
2018-09-01T14:19:48.455Z,25.80
2018-09-01T14:22:16.821Z,26.00
2018-09-01T14:24:45.212Z,26.10
2018-09-01T14:27:13.592Z,25.90
2018-09-01T14:29:41.988Z,26.00
2018-09-01T14:32:10.372Z,26.00
2018-09-01T14:34:38.769Z,25.90
2018-09-01T14:37:07.536Z,25.90
2018-09-01T14:39:35.871Z,25.90
2018-09-01T14:42:04.281Z,25.90
2018-09-01T14:44:32.709Z,26.00
2018-09-01T14:47:01.129Z,25.80
2018-09-01T14:49:29.565Z,25.60
2018-09-01T14:51:57.961Z,25.30
2018-09-01T14:54:26.314Z,25.10
2018-09-01T14:56:54.717Z,25.00
2018-09-01T14:59:23.096Z,24.80
2018-09-01T15:01:51.489Z,24.80
2018-09-01T15:04:19.972Z,24.60
2018-09-01T15:06:48.384Z,24.60
2018-09-01T15:09:16.736Z,24.50
2018-09-01T15:11:45.140Z,24.40
2018-09-01T15:14:13.729Z,24.40
2018-09-01T15:16:42.135Z,24.30
2018-09-01T15:19:10.888Z,24.40
2018-09-01T15:21:39.284Z,24.30
2018-09-01T15:24:08.053Z,24.20
2018-09-01T15:26:36.691Z,24.20
2018-09-01T15:29:05.109Z,24.10
2018-09-01T15:31:33.504Z,24.10
2018-09-01T15:34:01.928Z,24.00
2018-09-01T15:36:30.333Z,24.00
2018-09-01T15:38:58.696Z,24.00
2018-09-01T15:41:27.084Z,24.20
2018-09-01T15:43:55.473Z,24.60
2018-09-01T15:46:23.913Z,25.10
2018-09-01T15:48:52.313Z,25.70
2018-09-01T15:51:20.724Z,26.30
2018-09-01T15:53:49.165Z,26.80
2018-09-01T15:56:17.616Z,27.20
2018-09-01T15:58:45.939Z,27.70
2018-09-01T16:01:14.296Z,28.10
2018-09-01T16:03:42.751Z,28.50
2018-09-01T16:06:11.245Z,28.80
2018-09-01T16:08:39.632Z,28.80
2018-09-01T16:11:08.116Z,28.60
2018-09-01T16:13:36.501Z,28.20
2018-09-01T16:16:04.965Z,27.80
2018-09-01T16:18:33.357Z,27.20
2018-09-01T16:21:01.752Z,26.80
2018-09-01T16:23:30.153Z,26.50
2018-09-01T16:25:58.564Z,26.30
2018-09-01T16:28:27.116Z,26.10
2018-09-01T16:30:55.765Z,26.00
2018-09-01T16:33:24.173Z,25.80
2018-09-01T16:35:52.549Z,25.70
2018-09-01T16:38:20.944Z,25.60
2018-09-01T16:40:49.308Z,25.40
2018-09-01T16:43:17.727Z,25.20
2018-09-01T16:45:46.113Z,25.00
2018-09-01T16:48:14.625Z,24.80
2018-09-01T16:50:43.001Z,24.60
2018-09-01T16:53:11.400Z,24.30
2018-09-01T16:55:39.764Z,24.10
2018-09-01T16:58:08.161Z,23.90
2018-09-01T17:00:36.597Z,23.90
2018-09-01T17:03:04.960Z,23.90
2018-09-01T17:05:33.327Z,23.80
2018-09-01T17:08:01.741Z,23.70
2018-09-01T17:10:30.109Z,23.60
2018-09-01T17:12:58.504Z,23.50
2018-09-01T17:15:26.880Z,23.30
2018-09-01T17:17:55.356Z,23.20
2018-09-01T17:20:23.746Z,23.10
2018-09-01T17:22:52.140Z,23.00
2018-09-01T17:25:20.508Z,22.90
2018-09-01T17:27:49.026Z,22.80
2018-09-01T17:30:17.512Z,22.70
2018-09-01T17:32:45.901Z,22.70
2018-09-01T17:35:14.268Z,22.60
2018-09-01T17:37:42.631Z,22.50
2018-09-01T17:40:11.012Z,22.40
2018-09-01T17:42:39.392Z,22.30
2018-09-01T17:45:08.329Z,22.20
2018-09-01T17:47:36.684Z,22.20
2018-09-01T17:50:05.083Z,22.10
2018-09-01T17:52:33.437Z,22.00
2018-09-01T17:55:01.857Z,21.90
2018-09-01T17:57:30.267Z,21.90
2018-09-01T17:59:58.733Z,21.80
2018-09-01T18:02:27.108Z,21.80
2018-09-01T18:04:55.500Z,21.70
2018-09-01T18:07:23.893Z,21.70
2018-09-01T18:09:52.312Z,21.60
2018-09-01T18:12:20.664Z,21.60
2018-09-01T18:14:49.072Z,21.50
2018-09-01T18:17:17.848Z,21.50
2018-09-01T18:19:46.233Z,21.50
2018-09-01T18:22:14.592Z,21.50
2018-09-01T18:24:42.984Z,21.40
2018-09-01T18:27:11.387Z,21.40
2018-09-01T18:29:39.855Z,21.30
2018-09-01T18:32:08.333Z,21.30
2018-09-01T18:34:37.558Z,21.20
2018-09-01T18:37:05.959Z,21.20
2018-09-01T18:39:34.348Z,21.20
2018-09-01T18:42:02.796Z,21.10
2018-09-01T18:44:31.178Z,21.10
2018-09-01T18:46:59.544Z,21.00
2018-09-01T18:49:27.990Z,21.00
2018-09-01T18:51:56.347Z,20.90
2018-09-01T18:54:24.791Z,20.90
2018-09-01T18:56:53.224Z,20.90
2018-09-01T18:59:21.600Z,20.90
2018-09-01T19:01:49.957Z,20.90
2018-09-01T19:04:18.343Z,20.90
2018-09-01T19:06:46.712Z,20.80
2018-09-01T19:09:15.106Z,20.80
2018-09-01T19:11:43.484Z,20.70
2018-09-01T19:14:11.917Z,20.60
2018-09-01T19:16:40.339Z,20.60
2018-09-01T19:19:08.718Z,20.50
2018-09-01T19:21:37.203Z,20.40
2018-09-01T19:24:05.640Z,20.30
2018-09-01T19:26:34.031Z,20.30
2018-09-01T19:29:02.444Z,20.20
2018-09-01T19:31:30.848Z,20.10
2018-09-01T19:33:59.272Z,20.10
2018-09-01T19:36:27.679Z,20.00
2018-09-01T19:38:56.079Z,19.90
2018-09-01T19:41:24.447Z,19.90
2018-09-01T19:43:52.816Z,19.80
2018-09-01T19:46:21.360Z,19.80
2018-09-01T19:48:49.657Z,19.70
2018-09-01T19:51:18.087Z,19.70
2018-09-01T19:53:46.432Z,19.70
2018-09-01T19:56:15.010Z,19.70
2018-09-01T19:58:43.381Z,19.60
2018-09-01T20:01:11.780Z,19.60
2018-09-01T20:03:40.153Z,19.50
2018-09-01T20:06:08.545Z,19.50
2018-09-01T20:08:36.957Z,19.40
2018-09-01T20:11:05.424Z,19.40
2018-09-01T20:13:33.828Z,19.40
2018-09-01T20:16:02.232Z,19.40
2018-09-01T20:18:30.619Z,19.40
2018-09-01T20:20:59.027Z,19.30
2018-09-01T20:23:27.392Z,19.30
2018-09-01T20:25:55.813Z,19.20
2018-09-01T20:28:24.185Z,19.20
2018-09-01T20:30:52.580Z,19.20
2018-09-01T20:33:21.005Z,19.10
2018-09-01T20:35:56.005Z,19.10
2018-09-01T20:38:25.277Z,19.10
2018-09-01T20:40:53.768Z,19.00
2018-09-01T20:43:22.235Z,19.00
2018-09-01T20:45:50.660Z,19.00
2018-09-01T20:48:19.024Z,19.00
2018-09-01T20:50:47.444Z,19.00
2018-09-01T20:53:15.814Z,19.00
2018-09-01T20:55:44.208Z,18.90
2018-09-01T20:58:12.646Z,18.90
2018-09-01T21:00:41.235Z,18.90
2018-09-01T21:03:09.757Z,18.80
2018-09-01T21:05:38.152Z,18.80
2018-09-01T21:08:07.511Z,18.70
2018-09-01T21:10:36.017Z,18.60
2018-09-01T21:13:04.417Z,18.50
2018-09-01T21:15:32.793Z,18.50
2018-09-01T21:18:01.179Z,18.40
2018-09-01T21:20:29.572Z,18.40
2018-09-01T21:22:57.949Z,18.40
2018-09-01T21:25:26.340Z,18.30
2018-09-01T21:27:54.834Z,18.20
2018-09-01T21:30:23.249Z,18.20
2018-09-01T21:32:51.889Z,18.20
2018-09-01T21:35:20.281Z,18.20
2018-09-01T21:37:48.728Z,18.10
2018-09-01T21:40:17.098Z,18.10
2018-09-01T21:42:45.641Z,18.10
2018-09-01T21:45:14.016Z,18.10
2018-09-01T21:47:42.472Z,18.10
2018-09-01T21:50:11.714Z,18.10
2018-09-01T21:52:40.459Z,18.10
2018-09-01T21:55:08.826Z,18.10
2018-09-01T21:57:37.233Z,18.00
2018-09-01T22:00:06.657Z,17.90
2018-09-01T22:02:35.049Z,17.90
2018-09-01T22:05:08.953Z,17.90
2018-09-01T22:07:37.344Z,17.90
2018-09-01T22:10:05.980Z,17.90
2018-09-01T22:12:34.341Z,17.90
2018-09-01T22:15:02.701Z,17.80
2018-09-01T22:17:31.097Z,17.80
2018-09-01T22:19:59.488Z,17.70
2018-09-01T22:22:27.891Z,17.70
2018-09-01T22:24:56.256Z,17.70
2018-09-01T22:27:24.692Z,17.60
2018-09-01T22:29:54.381Z,17.60
2018-09-01T22:32:23.163Z,17.60
2018-09-01T22:34:51.614Z,17.60
2018-09-01T22:37:20.033Z,17.60
2018-09-01T22:39:48.412Z,17.60
2018-09-01T22:42:17.498Z,17.50
2018-09-01T22:44:45.873Z,17.50
2018-09-01T22:47:17.681Z,17.50
2018-09-01T22:49:46.061Z,17.50
2018-09-01T22:52:14.495Z,17.40
2018-09-01T22:54:42.865Z,17.40
2018-09-01T22:57:11.298Z,17.40
2018-09-01T22:59:39.673Z,17.40
2018-09-01T23:02:08.113Z,17.30
2018-09-01T23:04:36.475Z,17.30
2018-09-01T23:07:05.113Z,17.30
2018-09-01T23:09:33.500Z,17.30
2018-09-01T23:12:01.916Z,17.20
2018-09-01T23:14:30.278Z,17.20
2018-09-01T23:16:58.857Z,17.20
2018-09-01T23:19:27.284Z,17.20
2018-09-01T23:21:55.727Z,17.20
2018-09-01T23:24:24.105Z,17.10
2018-09-01T23:26:52.531Z,17.10
2018-09-01T23:29:20.942Z,17.10
2018-09-01T23:31:49.349Z,17.10
2018-09-01T23:34:17.965Z,17.00
2018-09-01T23:36:46.338Z,17.00
2018-09-01T23:39:14.737Z,17.00
2018-09-01T23:41:43.149Z,16.90
2018-09-01T23:44:11.565Z,16.90
2018-09-01T23:46:39.973Z,16.90
2018-09-01T23:49:08.365Z,16.90
2018-09-01T23:51:36.769Z,16.90
2018-09-01T23:54:05.224Z,16.80
2018-09-01T23:56:33.593Z,16.80
2018-09-01T23:59:01.981Z,16.80
